sensor_id;sensor_type;location;lat;lon;timestamp;temperature;humidity
44695;DHT22;32845;59.422;17.930;2023-01-09T00:00:47;3.90;99.90
44695;DHT22;32845;59.422;17.930;2023-01-09T00:05:19;3.90;99.90
44695;DHT22;32845;59.422;17.930;2023-01-09T00:09:49;3.90;99.90
44695;DHT22;32845;59.422;17.930;2023-01-09T00:14:20;3.90;99.90
44695;DHT22;32845;59.422;17.930;2023-01-09T00:18:52;3.90;99.90
44695;DHT22;32845;59.422;17.930;2023-01-09T00:23:23;3.90;99.90
44695;DHT22;32845;59.422;17.930;2023-01-09T00:33:19;3.90;99.90
44695;DHT22;32845;59.422;17.930;2023-01-09T00:37:50;4.00;99.90
44695;DHT22;32845;59.422;17.930;2023-01-09T00:42:23;4.00;99.90
44695;DHT22;32845;59.422;17.930;2023-01-09T00:47:00;4.00;99.90
44695;DHT22;32845;59.422;17.930;2023-01-09T00:51:32;4.00;99.90
44695;DHT22;32845;59.422;17.930;2023-01-09T00:56:07;4.00;99.90
44695;DHT22;32845;59.422;17.930;2023-01-09T01:00:38;4.00;99.90
44695;DHT22;32845;59.422;17.930;2023-01-09T01:05:09;4.00;99.90
44695;DHT22;32845;59.422;17.930;2023-01-09T01:09:58;4.00;99.90
44695;DHT22;32845;59.422;17.930;2023-01-09T01:14:29;4.00;99.90
44695;DHT22;32845;59.422;17.930;2023-01-09T01:19:00;4.10;99.90
44695;DHT22;32845;59.422;17.930;2023-01-09T01:23:30;4.10;99.90
44695;DHT22;32845;59.422;17.930;2023-01-09T01:28:07;4.10;99.90
44695;DHT22;32845;59.422;17.930;2023-01-09T01:32:38;4.10;99.90
44695;DHT22;32845;59.422;17.930;2023-01-09T01:37:09;4.10;99.90
44695;DHT22;32845;59.422;17.930;2023-01-09T01:41:40;4.10;99.90
44695;DHT22;32845;59.422;17.930;2023-01-09T01:46:17;4.10;99.90
44695;DHT22;32845;59.422;17.930;2023-01-09T01:50:55;4.10;99.90
44695;DHT22;32845;59.422;17.930;2023-01-09T01:55:27;4.10;99.90
44695;DHT22;32845;59.422;17.930;2023-01-09T01:59:59;4.10;99.90
44695;DHT22;32845;59.422;17.930;2023-01-09T02:04:34;4.10;99.90
44695;DHT22;32845;59.422;17.930;2023-01-09T02:09:06;4.10;99.90
44695;DHT22;32845;59.422;17.930;2023-01-09T02:13:38;4.10;99.90
44695;DHT22;32845;59.422;17.930;2023-01-09T02:42:26;4.20;99.90
44695;DHT22;32845;59.422;17.930;2023-01-09T03:07:29;4.20;99.90
44695;DHT22;32845;59.422;17.930;2023-01-09T03:11:48;4.30;99.90
44695;DHT22;32845;59.422;17.930;2023-01-09T03:16:22;4.30;99.90
44695;DHT22;32845;59.422;17.930;2023-01-09T03:20:54;4.30;99.90
44695;DHT22;32845;59.422;17.930;2023-01-09T03:25:26;4.30;99.90
44695;DHT22;32845;59.422;17.930;2023-01-09T03:29:57;4.20;99.90
44695;DHT22;32845;59.422;17.930;2023-01-09T03:34:28;4.30;99.90
44695;DHT22;32845;59.422;17.930;2023-01-09T03:38:59;4.30;99.90
44695;DHT22;32845;59.422;17.930;2023-01-09T03:43:30;4.30;99.90
44695;DHT22;32845;59.422;17.930;2023-01-09T03:48:00;4.30;99.90
44695;DHT22;32845;59.422;17.930;2023-01-09T03:52:31;4.30;99.90
44695;DHT22;32845;59.422;17.930;2023-01-09T03:57:02;4.30;99.90
44695;DHT22;32845;59.422;17.930;2023-01-09T04:01:33;4.30;99.90
44695;DHT22;32845;59.422;17.930;2023-01-09T04:06:05;4.30;99.90
44695;DHT22;32845;59.422;17.930;2023-01-09T04:10:35;4.30;99.90
44695;DHT22;32845;59.422;17.930;2023-01-09T04:15:06;4.30;99.90
44695;DHT22;32845;59.422;17.930;2023-01-09T04:19:37;4.30;99.90
44695;DHT22;32845;59.422;17.930;2023-01-09T04:24:08;4.30;99.90
44695;DHT22;32845;59.422;17.930;2023-01-09T04:28:39;4.30;99.90
44695;DHT22;32845;59.422;17.930;2023-01-09T04:33:09;4.30;99.90
44695;DHT22;32845;59.422;17.930;2023-01-09T04:37:40;4.30;99.90
44695;DHT22;32845;59.422;17.930;2023-01-09T04:42:11;4.30;99.90
44695;DHT22;32845;59.422;17.930;2023-01-09T04:46:42;4.30;99.90
44695;DHT22;32845;59.422;17.930;2023-01-09T04:51:13;4.30;99.90
44695;DHT22;32845;59.422;17.930;2023-01-09T04:55:43;4.30;99.90
44695;DHT22;32845;59.422;17.930;2023-01-09T05:00:15;4.40;99.90
44695;DHT22;32845;59.422;17.930;2023-01-09T05:04:46;4.40;99.90
44695;DHT22;32845;59.422;17.930;2023-01-09T05:09:16;4.30;99.90
44695;DHT22;32845;59.422;17.930;2023-01-09T05:13:47;4.40;99.90
44695;DHT22;32845;59.422;17.930;2023-01-09T05:18:18;4.30;99.90
44695;DHT22;32845;59.422;17.930;2023-01-09T05:22:48;4.30;99.90
44695;DHT22;32845;59.422;17.930;2023-01-09T05:27:19;4.40;99.90
44695;DHT22;32845;59.422;17.930;2023-01-09T05:31:50;4.40;99.90
44695;DHT22;32845;59.422;17.930;2023-01-09T05:36:22;4.40;99.90
44695;DHT22;32845;59.422;17.930;2023-01-09T05:40:52;4.40;99.90
44695;DHT22;32845;59.422;17.930;2023-01-09T05:45:23;4.40;99.90
44695;DHT22;32845;59.422;17.930;2023-01-09T05:49:54;4.40;99.90
44695;DHT22;32845;59.422;17.930;2023-01-09T05:54:27;4.40;99.90
44695;DHT22;32845;59.422;17.930;2023-01-09T05:58:58;4.40;99.90
44695;DHT22;32845;59.422;17.930;2023-01-09T06:03:29;4.40;99.90
44695;DHT22;32845;59.422;17.930;2023-01-09T06:08:00;4.50;99.90
44695;DHT22;32845;59.422;17.930;2023-01-09T06:12:30;4.40;99.90
44695;DHT22;32845;59.422;17.930;2023-01-09T06:17:01;4.40;99.90
44695;DHT22;32845;59.422;17.930;2023-01-09T06:21:32;4.40;99.90
44695;DHT22;32845;59.422;17.930;2023-01-09T06:26:03;4.40;99.90
44695;DHT22;32845;59.422;17.930;2023-01-09T06:30:34;4.40;99.90
44695;DHT22;32845;59.422;17.930;2023-01-09T06:35:05;4.40;99.90
44695;DHT22;32845;59.422;17.930;2023-01-09T06:39:36;4.40;99.90
44695;DHT22;32845;59.422;17.930;2023-01-09T06:44:06;4.30;99.90
44695;DHT22;32845;59.422;17.930;2023-01-09T06:48:37;4.40;99.90
44695;DHT22;32845;59.422;17.930;2023-01-09T06:53:08;4.30;99.90
44695;DHT22;32845;59.422;17.930;2023-01-09T06:57:40;4.20;99.90
44695;DHT22;32845;59.422;17.930;2023-01-09T07:02:17;4.30;99.90
44695;DHT22;32845;59.422;17.930;2023-01-09T07:06:48;4.20;99.90
44695;DHT22;32845;59.422;17.930;2023-01-09T07:11:19;4.20;99.90
44695;DHT22;32845;59.422;17.930;2023-01-09T07:15:49;4.30;99.90
44695;DHT22;32845;59.422;17.930;2023-01-09T07:20:22;4.20;99.90
44695;DHT22;32845;59.422;17.930;2023-01-09T07:24:53;4.30;99.90
44695;DHT22;32845;59.422;17.930;2023-01-09T07:29:24;4.20;99.90
44695;DHT22;32845;59.422;17.930;2023-01-09T07:33:54;4.30;99.90
44695;DHT22;32845;59.422;17.930;2023-01-09T07:38:25;4.30;99.90
44695;DHT22;32845;59.422;17.930;2023-01-09T07:42:56;4.20;99.90
44695;DHT22;32845;59.422;17.930;2023-01-09T07:47:27;4.20;99.90
44695;DHT22;32845;59.422;17.930;2023-01-09T07:51:57;4.20;99.90
44695;DHT22;32845;59.422;17.930;2023-01-09T07:56:28;4.20;99.90
44695;DHT22;32845;59.422;17.930;2023-01-09T08:00:59;4.20;99.90
44695;DHT22;32845;59.422;17.930;2023-01-09T08:05:29;4.30;99.90
44695;DHT22;32845;59.422;17.930;2023-01-09T08:10:00;4.30;99.90
44695;DHT22;32845;59.422;17.930;2023-01-09T08:14:31;4.30;99.90
44695;DHT22;32845;59.422;17.930;2023-01-09T08:19:01;4.40;99.90
44695;DHT22;32845;59.422;17.930;2023-01-09T08:23:32;4.40;99.90
44695;DHT22;32845;59.422;17.930;2023-01-09T08:28:03;4.40;99.90
44695;DHT22;32845;59.422;17.930;2023-01-09T08:32:35;4.40;99.90
44695;DHT22;32845;59.422;17.930;2023-01-09T08:37:06;4.40;99.90
44695;DHT22;32845;59.422;17.930;2023-01-09T08:41:37;4.50;99.90
44695;DHT22;32845;59.422;17.930;2023-01-09T08:46:26;4.50;99.90
44695;DHT22;32845;59.422;17.930;2023-01-09T08:51:15;4.50;99.90
44695;DHT22;32845;59.422;17.930;2023-01-09T08:55:46;4.50;99.90
44695;DHT22;32845;59.422;17.930;2023-01-09T09:00:18;4.50;99.90
44695;DHT22;32845;59.422;17.930;2023-01-09T09:04:49;4.50;99.90
44695;DHT22;32845;59.422;17.930;2023-01-09T09:09:22;4.50;99.90
44695;DHT22;32845;59.422;17.930;2023-01-09T09:13:54;4.50;99.90
44695;DHT22;32845;59.422;17.930;2023-01-09T09:18:25;4.50;99.90
44695;DHT22;32845;59.422;17.930;2023-01-09T09:22:56;4.50;99.90
44695;DHT22;32845;59.422;17.930;2023-01-09T09:27:27;4.50;99.90
44695;DHT22;32845;59.422;17.930;2023-01-09T09:31:57;4.50;99.90
44695;DHT22;32845;59.422;17.930;2023-01-09T09:36:28;4.50;99.90
44695;DHT22;32845;59.422;17.930;2023-01-09T09:41:45;4.60;99.90
44695;DHT22;32845;59.422;17.930;2023-01-09T09:47:01;4.60;99.90
44695;DHT22;32845;59.422;17.930;2023-01-09T09:52:02;4.50;99.90
44695;DHT22;32845;59.422;17.930;2023-01-09T09:56:47;4.50;99.90
44695;DHT22;32845;59.422;17.930;2023-01-09T10:01:26;4.60;99.90
44695;DHT22;32845;59.422;17.930;2023-01-09T10:05:59;4.50;99.90
44695;DHT22;32845;59.422;17.930;2023-01-09T10:10:42;4.50;99.90
44695;DHT22;32845;59.422;17.930;2023-01-09T10:15:18;4.60;99.90
44695;DHT22;32845;59.422;17.930;2023-01-09T10:19:57;4.60;99.90
44695;DHT22;32845;59.422;17.930;2023-01-09T10:38:42;4.70;99.90
44695;DHT22;32845;59.422;17.930;2023-01-09T10:43:28;4.80;99.90
44695;DHT22;32845;59.422;17.930;2023-01-09T10:48:25;4.80;99.90
44695;DHT22;32845;59.422;17.930;2023-01-09T10:52:58;4.80;99.90
44695;DHT22;32845;59.422;17.930;2023-01-09T10:57:41;4.80;99.90
44695;DHT22;32845;59.422;17.930;2023-01-09T11:02:33;4.80;99.90
44695;DHT22;32845;59.422;17.930;2023-01-09T11:07:30;4.80;99.90
44695;DHT22;32845;59.422;17.930;2023-01-09T11:12:23;4.80;99.90
44695;DHT22;32845;59.422;17.930;2023-01-09T11:16:56;4.80;99.90
44695;DHT22;32845;59.422;17.930;2023-01-09T11:21:37;4.80;99.90
44695;DHT22;32845;59.422;17.930;2023-01-09T11:26:24;4.70;99.90
44695;DHT22;32845;59.422;17.930;2023-01-09T11:31:00;4.70;99.90
44695;DHT22;32845;59.422;17.930;2023-01-09T11:35:32;4.70;99.90
44695;DHT22;32845;59.422;17.930;2023-01-09T11:40:03;4.70;99.90
44695;DHT22;32845;59.422;17.930;2023-01-09T11:44:34;4.70;99.90
44695;DHT22;32845;59.422;17.930;2023-01-09T11:49:29;4.70;99.90
44695;DHT22;32845;59.422;17.930;2023-01-09T11:54:27;4.70;99.90
44695;DHT22;32845;59.422;17.930;2023-01-09T11:58:59;4.80;99.90
44695;DHT22;32845;59.422;17.930;2023-01-09T12:09:08;4.70;99.90
44695;DHT22;32845;59.422;17.930;2023-01-09T12:33:08;4.70;99.90
44695;DHT22;32845;59.422;17.930;2023-01-09T12:47:41;4.80;99.90
44695;DHT22;32845;59.422;17.930;2023-01-09T12:52:18;4.90;99.90
44695;DHT22;32845;59.422;17.930;2023-01-09T12:57:08;4.90;99.90
44695;DHT22;32845;59.422;17.930;2023-01-09T13:01:47;4.90;99.90
44695;DHT22;32845;59.422;17.930;2023-01-09T13:06:20;5.00;99.90
44695;DHT22;32845;59.422;17.930;2023-01-09T13:11:18;5.00;99.90
44695;DHT22;32845;59.422;17.930;2023-01-09T13:15:56;5.00;99.90
44695;DHT22;32845;59.422;17.930;2023-01-09T13:20:37;5.10;99.90
44695;DHT22;32845;59.422;17.930;2023-01-09T13:25:36;5.10;99.90
44695;DHT22;32845;59.422;17.930;2023-01-09T13:30:35;5.00;99.90
44695;DHT22;32845;59.422;17.930;2023-01-09T13:35:15;5.10;99.90
44695;DHT22;32845;59.422;17.930;2023-01-09T13:39:54;5.10;99.90
44695;DHT22;32845;59.422;17.930;2023-01-09T13:44:26;5.10;99.90
44695;DHT22;32845;59.422;17.930;2023-01-09T13:48:58;5.10;99.90
44695;DHT22;32845;59.422;17.930;2023-01-09T14:07:22;5.00;99.90
44695;DHT22;32845;59.422;17.930;2023-01-09T14:12:04;5.10;99.90
44695;DHT22;32845;59.422;17.930;2023-01-09T14:16:35;5.10;99.90
44695;DHT22;32845;59.422;17.930;2023-01-09T14:21:10;5.00;99.90
44695;DHT22;32845;59.422;17.930;2023-01-09T14:25:46;5.00;99.90
44695;DHT22;32845;59.422;17.930;2023-01-09T14:35:07;5.00;99.90
44695;DHT22;32845;59.422;17.930;2023-01-09T14:39:42;5.00;99.90
44695;DHT22;32845;59.422;17.930;2023-01-09T14:54:14;4.90;99.90
44695;DHT22;32845;59.422;17.930;2023-01-09T14:59:00;4.90;99.90
44695;DHT22;32845;59.422;17.930;2023-01-09T15:03:39;4.90;99.90
44695;DHT22;32845;59.422;17.930;2023-01-09T15:08:15;4.90;99.90
44695;DHT22;32845;59.422;17.930;2023-01-09T15:12:50;4.80;99.90
44695;DHT22;32845;59.422;17.930;2023-01-09T15:17:28;4.80;99.90
44695;DHT22;32845;59.422;17.930;2023-01-09T15:22:05;4.80;99.90
44695;DHT22;32845;59.422;17.930;2023-01-09T15:26:38;4.80;99.90
44695;DHT22;32845;59.422;17.930;2023-01-09T15:31:14;4.80;99.90
44695;DHT22;32845;59.422;17.930;2023-01-09T15:35:48;4.70;99.90
44695;DHT22;32845;59.422;17.930;2023-01-09T15:40:22;4.70;99.90
44695;DHT22;32845;59.422;17.930;2023-01-09T15:44:59;4.70;99.90
44695;DHT22;32845;59.422;17.930;2023-01-09T15:49:32;4.70;99.90
44695;DHT22;32845;59.422;17.930;2023-01-09T15:54:03;4.60;99.90
44695;DHT22;32845;59.422;17.930;2023-01-09T15:58:42;4.60;99.90
44695;DHT22;32845;59.422;17.930;2023-01-09T16:03:19;4.60;99.90
44695;DHT22;32845;59.422;17.930;2023-01-09T16:07:50;4.60;99.90
44695;DHT22;32845;59.422;17.930;2023-01-09T16:12:26;4.60;99.90
44695;DHT22;32845;59.422;17.930;2023-01-09T16:17:05;4.60;99.90
44695;DHT22;32845;59.422;17.930;2023-01-09T16:21:36;4.60;99.90
44695;DHT22;32845;59.422;17.930;2023-01-09T16:26:11;4.60;99.90
44695;DHT22;32845;59.422;17.930;2023-01-09T16:30:51;4.50;99.90
44695;DHT22;32845;59.422;17.930;2023-01-09T16:35:27;4.50;99.90
44695;DHT22;32845;59.422;17.930;2023-01-09T16:44:52;4.50;99.90
44695;DHT22;32845;59.422;17.930;2023-01-09T16:49:24;4.50;99.90
44695;DHT22;32845;59.422;17.930;2023-01-09T16:53:56;4.50;99.90
44695;DHT22;32845;59.422;17.930;2023-01-09T16:58:29;4.40;99.90
44695;DHT22;32845;59.422;17.930;2023-01-09T17:03:00;4.40;99.90
44695;DHT22;32845;59.422;17.930;2023-01-09T17:07:43;4.40;99.90
44695;DHT22;32845;59.422;17.930;2023-01-09T17:12:18;4.30;99.90
44695;DHT22;32845;59.422;17.930;2023-01-09T17:16:51;4.30;99.90
44695;DHT22;32845;59.422;17.930;2023-01-09T17:21:24;4.30;99.90
44695;DHT22;32845;59.422;17.930;2023-01-09T17:25:58;4.20;99.90
44695;DHT22;32845;59.422;17.930;2023-01-09T17:30:47;4.20;99.90
44695;DHT22;32845;59.422;17.930;2023-01-09T17:35:18;4.20;99.90
44695;DHT22;32845;59.422;17.930;2023-01-09T17:39:48;4.20;99.90
44695;DHT22;32845;59.422;17.930;2023-01-09T17:44:19;4.20;99.90
44695;DHT22;32845;59.422;17.930;2023-01-09T17:48:50;4.20;99.90
44695;DHT22;32845;59.422;17.930;2023-01-09T17:53:22;4.20;99.90
44695;DHT22;32845;59.422;17.930;2023-01-09T17:57:54;4.20;99.90
44695;DHT22;32845;59.422;17.930;2023-01-09T18:02:25;4.10;99.90
44695;DHT22;32845;59.422;17.930;2023-01-09T18:06:56;4.10;99.90
44695;DHT22;32845;59.422;17.930;2023-01-09T18:11:26;4.10;99.90
44695;DHT22;32845;59.422;17.930;2023-01-09T18:15:57;4.10;99.90
44695;DHT22;32845;59.422;17.930;2023-01-09T18:20:30;4.10;99.90
44695;DHT22;32845;59.422;17.930;2023-01-09T18:25:00;4.00;99.90
44695;DHT22;32845;59.422;17.930;2023-01-09T18:29:31;4.00;99.90
44695;DHT22;32845;59.422;17.930;2023-01-09T18:34:02;4.00;99.90
44695;DHT22;32845;59.422;17.930;2023-01-09T18:38:35;4.00;99.90
44695;DHT22;32845;59.422;17.930;2023-01-09T18:43:07;4.00;99.90
44695;DHT22;32845;59.422;17.930;2023-01-09T18:47:38;3.90;99.90
44695;DHT22;32845;59.422;17.930;2023-01-09T18:52:10;3.90;99.90
44695;DHT22;32845;59.422;17.930;2023-01-09T18:56:46;3.90;99.90
44695;DHT22;32845;59.422;17.930;2023-01-09T19:01:18;3.90;99.90
44695;DHT22;32845;59.422;17.930;2023-01-09T19:05:49;3.90;99.90
44695;DHT22;32845;59.422;17.930;2023-01-09T19:10:19;3.80;99.90
44695;DHT22;32845;59.422;17.930;2023-01-09T19:14:50;3.80;99.90
44695;DHT22;32845;59.422;17.930;2023-01-09T19:19:21;3.80;99.90
44695;DHT22;32845;59.422;17.930;2023-01-09T19:23:52;3.70;99.90
44695;DHT22;32845;59.422;17.930;2023-01-09T19:28:24;3.70;99.90
44695;DHT22;32845;59.422;17.930;2023-01-09T19:32:54;3.70;99.90
44695;DHT22;32845;59.422;17.930;2023-01-09T19:37:25;3.60;99.90
44695;DHT22;32845;59.422;17.930;2023-01-09T19:41:56;3.60;99.90
44695;DHT22;32845;59.422;17.930;2023-01-09T19:46:28;3.60;99.90
44695;DHT22;32845;59.422;17.930;2023-01-09T19:51:00;3.60;99.90
44695;DHT22;32845;59.422;17.930;2023-01-09T19:55:32;3.50;99.90
44695;DHT22;32845;59.422;17.930;2023-01-09T20:00:03;3.50;99.90
44695;DHT22;32845;59.422;17.930;2023-01-09T20:04:34;3.40;99.90
44695;DHT22;32845;59.422;17.930;2023-01-09T20:09:05;3.50;99.90
44695;DHT22;32845;59.422;17.930;2023-01-09T20:13:37;3.40;99.90
44695;DHT22;32845;59.422;17.930;2023-01-09T20:18:07;3.40;99.90
44695;DHT22;32845;59.422;17.930;2023-01-09T20:22:39;3.40;99.90
44695;DHT22;32845;59.422;17.930;2023-01-09T20:27:10;3.30;99.90
44695;DHT22;32845;59.422;17.930;2023-01-09T20:31:41;3.20;99.90
44695;DHT22;32845;59.422;17.930;2023-01-09T20:36:12;3.20;99.90
44695;DHT22;32845;59.422;17.930;2023-01-09T20:40:43;3.20;99.90
44695;DHT22;32845;59.422;17.930;2023-01-09T20:45:14;3.10;99.90
44695;DHT22;32845;59.422;17.930;2023-01-09T20:49:45;3.10;99.90
44695;DHT22;32845;59.422;17.930;2023-01-09T20:54:17;3.10;99.90
44695;DHT22;32845;59.422;17.930;2023-01-09T20:58:48;3.00;99.90
44695;DHT22;32845;59.422;17.930;2023-01-09T21:03:19;3.00;99.90
44695;DHT22;32845;59.422;17.930;2023-01-09T21:07:55;2.90;99.90
44695;DHT22;32845;59.422;17.930;2023-01-09T21:12:26;2.90;99.90
44695;DHT22;32845;59.422;17.930;2023-01-09T21:17:05;2.80;99.90
44695;DHT22;32845;59.422;17.930;2023-01-09T21:21:36;2.80;99.90
44695;DHT22;32845;59.422;17.930;2023-01-09T21:26:08;2.80;99.90
44695;DHT22;32845;59.422;17.930;2023-01-09T21:30:40;2.70;99.90
44695;DHT22;32845;59.422;17.930;2023-01-09T21:35:10;2.70;99.90
44695;DHT22;32845;59.422;17.930;2023-01-09T21:39:41;2.70;99.90
44695;DHT22;32845;59.422;17.930;2023-01-09T21:44:12;2.60;99.90
44695;DHT22;32845;59.422;17.930;2023-01-09T21:49:03;2.60;99.90
44695;DHT22;32845;59.422;17.930;2023-01-09T21:53:34;2.50;99.90
44695;DHT22;32845;59.422;17.930;2023-01-09T21:58:04;2.50;99.90
44695;DHT22;32845;59.422;17.930;2023-01-09T22:02:35;2.40;99.90
44695;DHT22;32845;59.422;17.930;2023-01-09T22:07:08;2.40;99.90
44695;DHT22;32845;59.422;17.930;2023-01-09T22:11:40;2.40;99.90
44695;DHT22;32845;59.422;17.930;2023-01-09T22:16:10;2.30;99.90
44695;DHT22;32845;59.422;17.930;2023-01-09T22:20:41;2.30;99.90
44695;DHT22;32845;59.422;17.930;2023-01-09T22:25:12;2.30;99.90
44695;DHT22;32845;59.422;17.930;2023-01-09T22:29:43;2.30;99.90
44695;DHT22;32845;59.422;17.930;2023-01-09T22:34:15;2.30;99.90
44695;DHT22;32845;59.422;17.930;2023-01-09T22:38:46;2.30;99.90
44695;DHT22;32845;59.422;17.930;2023-01-09T22:43:17;2.20;99.90
44695;DHT22;32845;59.422;17.930;2023-01-09T22:47:47;2.20;99.90
44695;DHT22;32845;59.422;17.930;2023-01-09T22:52:18;2.10;99.90
44695;DHT22;32845;59.422;17.930;2023-01-09T22:56:49;2.00;99.90
44695;DHT22;32845;59.422;17.930;2023-01-09T23:01:21;2.10;99.90
44695;DHT22;32845;59.422;17.930;2023-01-09T23:05:59;2.00;99.90
44695;DHT22;32845;59.422;17.930;2023-01-09T23:10:31;2.00;99.90
44695;DHT22;32845;59.422;17.930;2023-01-09T23:15:01;1.90;99.90
44695;DHT22;32845;59.422;17.930;2023-01-09T23:19:32;1.90;99.90
44695;DHT22;32845;59.422;17.930;2023-01-09T23:24:05;1.90;99.90
44695;DHT22;32845;59.422;17.930;2023-01-09T23:28:36;1.80;99.90
44695;DHT22;32845;59.422;17.930;2023-01-09T23:33:07;1.80;99.90
44695;DHT22;32845;59.422;17.930;2023-01-09T23:37:42;1.80;99.90
44695;DHT22;32845;59.422;17.930;2023-01-09T23:42:13;1.80;99.90
44695;DHT22;32845;59.422;17.930;2023-01-09T23:47:02;1.70;99.90
44695;DHT22;32845;59.422;17.930;2023-01-09T23:51:33;1.70;99.90
44695;DHT22;32845;59.422;17.930;2023-01-09T23:56:04;1.70;99.90
